createdAt,value
2022-09-28T00:02:24.334Z,4.30
2022-09-28T00:04:51.974Z,4.53
2022-09-28T00:07:20.914Z,4.20
2022-09-28T00:09:48.620Z,4.65
2022-09-28T00:12:16.414Z,4.85
2022-09-28T00:14:44.742Z,4.57
2022-09-28T00:17:12.883Z,4.47
2022-09-28T00:19:40.951Z,4.35
2022-09-28T00:22:08.535Z,4.20
2022-09-28T00:24:37.567Z,4.40
2022-09-28T00:27:06.078Z,4.50
2022-09-28T00:29:35.552Z,4.47
2022-09-28T00:32:04.911Z,4.45
2022-09-28T00:34:35.909Z,4.07
2022-09-28T00:37:06.080Z,4.80
2022-09-28T00:39:35.609Z,4.50
2022-09-28T00:42:10.919Z,4.75
2022-09-28T00:44:42.704Z,4.18
2022-09-28T00:47:37.281Z,4.50
2022-09-28T00:50:11.818Z,4.85
2022-09-28T00:52:46.105Z,4.60
2022-09-28T00:55:18.098Z,4.60
2022-09-28T00:57:51.686Z,4.75
2022-09-28T01:00:19.758Z,4.97
2022-09-28T01:02:48.531Z,4.40
2022-09-28T01:05:17.980Z,4.68
2022-09-28T01:07:47.660Z,4.55
2022-09-28T01:10:15.857Z,4.43
2022-09-28T01:12:43.548Z,4.53
2022-09-28T01:15:13.312Z,4.47
2022-09-28T01:17:57.077Z,4.70
2022-09-28T01:20:41.542Z,4.28
2022-09-28T01:23:33.150Z,4.72
2022-09-28T01:26:20.950Z,4.85
2022-09-28T01:28:55.478Z,5.93
2022-09-28T01:31:28.823Z,5.72
2022-09-28T01:34:01.358Z,4.65
2022-09-28T01:36:34.754Z,5.43
2022-09-28T01:39:06.339Z,5.07
2022-09-28T01:41:38.061Z,5.43
2022-09-28T01:44:08.676Z,5.75
2022-09-28T01:46:41.943Z,5.00
2022-09-28T01:49:15.709Z,5.45
2022-09-28T01:51:48.036Z,5.50
2022-09-28T01:54:21.511Z,5.95
2022-09-28T01:56:55.250Z,6.13
2022-09-28T01:59:27.022Z,5.90
2022-09-28T02:01:58.712Z,5.78
2022-09-28T02:04:32.616Z,6.70
2022-09-28T02:07:05.501Z,5.30
2022-09-28T02:09:37.348Z,6.45
2022-09-28T02:12:11.635Z,6.18
2022-09-28T02:14:44.188Z,5.80
2022-09-28T02:17:12.324Z,6.22
2022-09-28T02:19:41.299Z,6.00
2022-09-28T02:22:23.112Z,7.25
2022-09-28T02:24:56.430Z,6.90
2022-09-28T02:27:35.697Z,6.47
2022-09-28T02:30:04.948Z,6.50
2022-09-28T02:32:34.940Z,7.28
2022-09-28T02:35:02.837Z,8.13
2022-09-28T02:37:30.531Z,7.20
2022-09-28T02:39:58.037Z,7.97
2022-09-28T02:42:32.922Z,7.03
2022-09-28T02:45:11.921Z,7.07
2022-09-28T02:47:57.225Z,6.72
2022-09-28T02:50:35.782Z,7.05
2022-09-28T02:53:28.954Z,6.40
2022-09-28T02:56:11.342Z,6.22
2022-09-28T02:58:52.250Z,6.50
2022-09-28T03:01:27.175Z,6.80
2022-09-28T03:03:59.160Z,6.32
2022-09-28T03:06:34.660Z,6.63
2022-09-28T03:09:06.697Z,5.95
2022-09-28T03:11:41.673Z,9.00
2022-09-28T03:14:11.018Z,7.00
2022-09-28T03:16:52.938Z,7.32
2022-09-28T03:19:23.848Z,6.40
2022-09-28T03:21:52.424Z,7.03
2022-09-28T03:24:19.968Z,6.80
2022-09-28T03:26:47.501Z,8.20
2022-09-28T03:29:17.078Z,8.60
2022-09-28T03:31:47.845Z,8.70
2022-09-28T03:34:15.510Z,8.20
2022-09-28T03:36:43.813Z,9.10
2022-09-28T03:39:11.421Z,7.75
2022-09-28T03:41:39.210Z,8.15
2022-09-28T03:44:06.745Z,8.30
2022-09-28T03:46:36.097Z,7.82
2022-09-28T03:49:07.626Z,7.72
2022-09-28T03:51:35.194Z,8.85
2022-09-28T03:54:03.054Z,8.07
2022-09-28T03:56:31.115Z,7.90
2022-09-28T03:58:58.916Z,8.57
2022-09-28T04:01:27.242Z,9.07
2022-09-28T04:03:56.722Z,8.52
2022-09-28T04:06:25.296Z,8.60
2022-09-28T04:08:53.110Z,8.43
2022-09-28T04:11:20.737Z,8.32
2022-09-28T04:13:50.084Z,8.18
2022-09-28T04:16:18.925Z,8.52
2022-09-28T04:18:58.898Z,8.13
2022-09-28T04:21:32.181Z,8.52
2022-09-28T04:24:11.189Z,7.95
2022-09-28T04:26:38.771Z,8.23
2022-09-28T04:29:17.677Z,9.15
2022-09-28T04:32:06.189Z,7.38
2022-09-28T04:34:43.768Z,9.45
2022-09-28T04:37:12.468Z,8.18
2022-09-28T04:39:44.044Z,8.45
2022-09-28T04:42:16.989Z,8.10
2022-09-28T04:44:44.615Z,9.20
2022-09-28T04:47:13.006Z,8.80
2022-09-28T04:50:00.467Z,8.50
2022-09-28T04:52:33.731Z,8.77
2022-09-28T04:55:01.452Z,8.75
2022-09-28T04:57:29.114Z,8.60
2022-09-28T04:59:56.617Z,8.50
2022-09-28T05:02:24.630Z,9.10
2022-09-28T05:05:06.860Z,10.23
2022-09-28T05:07:37.385Z,9.32
2022-09-28T05:10:07.737Z,8.55
2022-09-28T05:12:36.374Z,9.93
2022-09-28T05:15:04.406Z,9.25
2022-09-28T05:17:32.198Z,10.85
2022-09-28T05:20:19.593Z,11.35
2022-09-28T05:22:47.251Z,11.05
2022-09-28T05:25:15.082Z,11.15
2022-09-28T05:27:56.777Z,10.15
2022-09-28T05:30:44.585Z,10.52
2022-09-28T05:33:26.841Z,11.48
2022-09-28T05:36:11.699Z,11.52
2022-09-28T05:38:39.390Z,12.00
2022-09-28T05:41:07.316Z,11.05
2022-09-28T05:43:34.903Z,12.10
2022-09-28T05:46:05.050Z,11.32
2022-09-28T05:48:33.007Z,11.60
2022-09-28T05:51:00.525Z,13.10
2022-09-28T05:53:29.398Z,13.55
2022-09-28T05:55:59.615Z,14.07
2022-09-28T05:58:27.194Z,13.05
2022-09-28T06:00:56.155Z,13.00
2022-09-28T06:03:24.124Z,13.02
2022-09-28T06:05:51.923Z,13.35
2022-09-28T06:08:19.528Z,13.68
2022-09-28T06:11:00.397Z,14.57
2022-09-28T06:13:28.216Z,15.23
2022-09-28T06:15:56.345Z,16.48
2022-09-28T06:18:24.265Z,16.30
2022-09-28T06:21:19.578Z,14.82
2022-09-28T06:23:49.394Z,15.65
2022-09-28T06:26:19.844Z,15.40
2022-09-28T06:28:47.576Z,14.65
2022-09-28T06:31:15.759Z,15.90
2022-09-28T06:33:49.464Z,14.48
2022-09-28T06:36:18.268Z,15.10
2022-09-28T06:38:46.051Z,14.07
2022-09-28T06:41:16.373Z,14.25
2022-09-28T06:43:48.955Z,15.95
2022-09-28T06:46:44.488Z,15.05
2022-09-28T06:49:32.971Z,14.93
2022-09-28T06:52:26.529Z,14.95
2022-09-28T06:55:20.554Z,13.98
2022-09-28T06:58:01.842Z,14.77
2022-09-28T07:00:33.840Z,15.18
2022-09-28T07:03:04.123Z,13.82
2022-09-28T07:05:53.923Z,14.73
2022-09-28T07:08:40.022Z,14.15
2022-09-28T07:11:26.905Z,15.98
2022-09-28T07:14:24.115Z,14.65
2022-09-28T07:17:12.294Z,14.13
2022-09-28T07:19:41.909Z,16.58
2022-09-28T07:22:09.502Z,15.52
2022-09-28T07:24:37.079Z,14.45
2022-09-28T07:27:28.153Z,14.98
2022-09-28T07:30:14.632Z,15.25
2022-09-28T07:33:03.446Z,15.20
2022-09-28T07:35:42.953Z,17.45
2022-09-28T07:38:12.036Z,17.13
2022-09-28T07:40:57.311Z,15.25
2022-09-28T07:43:25.347Z,15.30
2022-09-28T07:45:54.995Z,14.25
2022-09-28T07:48:24.530Z,15.20
2022-09-28T07:51:09.123Z,15.07
2022-09-28T07:53:40.600Z,15.90
2022-09-28T07:56:25.290Z,15.88
2022-09-28T07:59:01.586Z,17.60
2022-09-28T08:01:49.394Z,16.88
2022-09-28T08:04:20.298Z,16.02
2022-09-28T08:06:48.263Z,16.55
2022-09-28T08:09:16.066Z,15.30
2022-09-28T08:12:03.993Z,15.05
2022-09-28T08:14:41.394Z,15.48
2022-09-28T08:17:29.317Z,15.73
2022-09-28T08:20:19.374Z,15.52
2022-09-28T08:22:47.548Z,14.25
2022-09-28T08:25:15.440Z,16.95
2022-09-28T08:27:42.978Z,15.18
2022-09-28T08:30:11.564Z,15.63
2022-09-28T08:32:59.425Z,15.80
2022-09-28T08:35:47.707Z,15.38
2022-09-28T08:38:22.067Z,15.18
2022-09-28T08:41:16.632Z,15.60
2022-09-28T08:44:17.014Z,14.77
2022-09-28T08:47:07.951Z,14.35
2022-09-28T08:49:48.497Z,16.00
2022-09-28T08:52:38.037Z,15.02
2022-09-28T08:55:31.192Z,15.48
2022-09-28T08:58:03.470Z,15.48
2022-09-28T09:00:39.252Z,15.32
2022-09-28T09:03:14.432Z,14.68
2022-09-28T09:05:55.943Z,15.38
2022-09-28T09:08:57.419Z,14.57
2022-09-28T09:11:39.596Z,15.88
2022-09-28T09:14:33.371Z,14.50
2022-09-28T09:17:08.022Z,15.15
2022-09-28T09:20:07.040Z,14.50
2022-09-28T09:22:57.693Z,13.82
2022-09-28T09:25:29.718Z,14.80
2022-09-28T09:28:29.003Z,15.02
2022-09-28T09:31:09.676Z,15.73
2022-09-28T09:34:07.177Z,15.40
2022-09-28T09:37:16.621Z,14.20
2022-09-28T09:40:24.865Z,15.20
2022-09-28T09:43:55.911Z,15.57
2022-09-28T09:46:49.097Z,16.92
2022-09-28T09:49:27.143Z,16.02
2022-09-28T09:52:00.237Z,15.48
2022-09-28T09:54:31.297Z,14.75
2022-09-28T09:57:04.061Z,14.48
2022-09-28T09:59:58.361Z,17.20
2022-09-28T10:02:46.853Z,13.65
2022-09-28T10:05:31.533Z,15.73
2022-09-28T10:08:03.938Z,15.40
2022-09-28T10:10:35.079Z,15.52
2022-09-28T10:13:10.100Z,14.38
2022-09-28T10:15:42.172Z,15.50
2022-09-28T10:18:23.600Z,12.55
2022-09-28T10:21:14.276Z,13.00
2022-09-28T10:23:57.863Z,11.60
2022-09-28T10:26:34.405Z,12.00
2022-09-28T10:29:14.792Z,11.13
2022-09-28T10:31:46.199Z,11.13
2022-09-28T10:34:27.335Z,10.23
2022-09-28T10:36:58.412Z,7.50
2022-09-28T10:39:32.444Z,7.13
2022-09-28T10:42:03.568Z,6.40
2022-09-28T10:44:34.177Z,6.20
2022-09-28T10:47:16.912Z,6.20
2022-09-28T10:49:48.414Z,6.35
2022-09-28T10:52:46.218Z,5.28
2022-09-28T10:55:36.834Z,4.63
2022-09-28T10:58:25.659Z,4.32
2022-09-28T11:00:59.733Z,4.15
2022-09-28T11:03:30.960Z,4.13
2022-09-28T11:06:06.001Z,4.18
2022-09-28T11:08:39.478Z,4.30
2022-09-28T11:11:11.443Z,3.80
2022-09-28T11:13:46.307Z,4.03
2022-09-28T11:16:23.820Z,4.20
2022-09-28T11:18:52.980Z,4.53
2022-09-28T11:21:25.935Z,3.78
2022-09-28T11:24:06.421Z,4.45
2022-09-28T11:26:40.760Z,4.85
2022-09-28T11:29:21.832Z,5.18
2022-09-28T11:32:03.653Z,4.55
2022-09-28T11:34:58.238Z,3.65
2022-09-28T11:37:38.490Z,3.92
2022-09-28T11:40:20.356Z,3.67
2022-09-28T11:42:54.308Z,3.45
2022-09-28T11:45:42.170Z,3.60
2022-09-28T11:48:15.911Z,2.88
2022-09-28T11:50:51.362Z,3.33
2022-09-28T11:53:25.573Z,3.05
2022-09-28T11:56:08.537Z,3.13
2022-09-28T11:58:41.541Z,2.63
2022-09-28T12:01:20.077Z,2.60
2022-09-28T12:04:17.321Z,3.58
2022-09-28T12:06:51.732Z,3.92
2022-09-28T12:09:25.458Z,3.70
2022-09-28T12:12:25.872Z,3.47
2022-09-28T12:15:01.865Z,4.07
2022-09-28T12:17:35.731Z,3.60
2022-09-28T12:20:11.387Z,3.60
2022-09-28T12:22:45.512Z,4.20
2022-09-28T12:25:15.986Z,3.53
2022-09-28T12:27:51.250Z,3.55
2022-09-28T12:30:20.658Z,3.92
2022-09-28T12:32:52.159Z,3.50
2022-09-28T12:35:28.195Z,3.63
2022-09-28T12:38:21.427Z,2.70
2022-09-28T12:40:56.307Z,3.40
2022-09-28T12:43:57.132Z,3.00
2022-09-28T12:46:38.141Z,3.45
2022-09-28T12:52:28.982Z,3.00
2022-09-28T12:55:20.925Z,3.22
2022-09-28T12:58:16.706Z,3.45
2022-09-28T13:00:55.717Z,4.05
2022-09-28T13:03:45.897Z,3.70
2022-09-28T13:06:33.268Z,3.30
2022-09-28T13:09:21.478Z,4.65
2022-09-28T13:12:05.365Z,3.53
2022-09-28T13:14:55.757Z,3.50
2022-09-28T13:17:38.783Z,4.28
2022-09-28T13:20:18.413Z,3.60
2022-09-28T13:22:51.378Z,3.80
2022-09-28T13:25:21.771Z,2.72
2022-09-28T13:27:55.921Z,2.95
2022-09-28T13:30:27.190Z,2.60
2022-09-28T13:32:57.637Z,2.80
2022-09-28T13:35:26.097Z,2.75
2022-09-28T13:38:30.532Z,2.33
2022-09-28T13:41:13.477Z,2.08
2022-09-28T13:44:02.500Z,2.30
2022-09-28T13:46:38.455Z,2.63
2022-09-28T13:49:13.964Z,2.25
2022-09-28T13:52:03.649Z,2.85
2022-09-28T13:54:42.055Z,2.05
2022-09-28T13:57:19.772Z,2.28
2022-09-28T14:00:02.548Z,3.10
2022-09-28T14:02:44.942Z,3.40
2022-09-28T14:05:42.512Z,2.85
2022-09-28T14:08:29.537Z,2.22
2022-09-28T14:10:58.727Z,2.50
2022-09-28T14:14:00.777Z,2.58
2022-09-28T14:16:32.211Z,3.15
2022-09-28T14:19:05.805Z,3.13
2022-09-28T14:21:51.448Z,2.92
2022-09-28T14:24:30.196Z,3.33
2022-09-28T14:27:36.115Z,3.45
2022-09-28T14:30:17.918Z,3.40
2022-09-28T14:32:53.535Z,4.20
2022-09-28T14:35:28.212Z,3.63
2022-09-28T14:38:18.409Z,2.83
2022-09-28T14:41:12.827Z,2.72
2022-09-28T14:44:00.871Z,2.35
2022-09-28T14:46:31.806Z,2.13
2022-09-28T14:49:03.571Z,2.92
2022-09-28T14:52:08.296Z,2.42
2022-09-28T14:54:45.224Z,2.10
2022-09-28T14:57:22.370Z,1.88
2022-09-28T14:59:50.438Z,2.60
2022-09-28T15:02:27.230Z,2.22
2022-09-28T15:05:01.017Z,2.15
2022-09-28T15:07:34.209Z,2.30
2022-09-28T15:10:03.387Z,1.75
2022-09-28T15:12:32.375Z,2.20
2022-09-28T15:15:02.379Z,1.58
2022-09-28T15:17:37.056Z,2.72
2022-09-28T15:20:25.710Z,1.92
2022-09-28T15:22:56.969Z,1.70
2022-09-28T15:25:26.875Z,2.17
2022-09-28T15:27:56.638Z,2.33
2022-09-28T15:30:28.293Z,2.20
2022-09-28T15:33:17.535Z,2.63
2022-09-28T15:35:48.556Z,2.30
2022-09-28T15:38:18.208Z,2.20
2022-09-28T15:40:47.577Z,2.40
2022-09-28T15:43:33.009Z,2.63
2022-09-28T15:46:16.081Z,2.28
2022-09-28T15:48:51.656Z,2.97
2022-09-28T15:51:21.968Z,2.75
2022-09-28T15:53:58.303Z,3.30
2022-09-28T15:56:26.837Z,3.33
2022-09-28T15:59:09.896Z,4.10
2022-09-28T16:01:42.502Z,3.38
2022-09-28T16:04:37.165Z,3.75
2022-09-28T16:07:27.521Z,4.20
2022-09-28T16:09:59.411Z,4.40
2022-09-28T16:12:31.798Z,4.78
2022-09-28T16:15:05.807Z,4.03
2022-09-28T16:17:36.384Z,5.13
2022-09-28T16:20:20.634Z,3.90
2022-09-28T16:22:50.018Z,4.15
2022-09-28T16:25:19.651Z,3.97
2022-09-28T16:27:47.344Z,4.93
2022-09-28T16:30:21.644Z,4.72
2022-09-28T16:32:53.100Z,4.68
2022-09-28T16:35:26.666Z,5.88
2022-09-28T16:38:14.572Z,5.70
2022-09-28T16:40:46.094Z,4.50
2022-09-28T16:43:20.288Z,6.47
2022-09-28T16:45:48.029Z,6.72
2022-09-28T16:48:19.255Z,6.95
2022-09-28T16:50:47.050Z,6.38
2022-09-28T16:53:35.299Z,7.22
2022-09-28T16:56:04.160Z,8.52
2022-09-28T16:58:32.064Z,8.18
2022-09-28T17:01:00.053Z,9.60
2022-09-28T17:03:29.235Z,8.43
2022-09-28T17:05:57.570Z,8.95
2022-09-28T17:08:26.659Z,9.20
2022-09-28T17:11:14.785Z,8.10
2022-09-28T17:13:45.148Z,9.00
2022-09-28T17:16:15.846Z,9.55
2022-09-28T17:18:43.590Z,7.53
2022-09-28T17:21:15.635Z,9.88
2022-09-28T17:23:45.311Z,9.70
2022-09-28T17:26:19.490Z,9.80
2022-09-28T17:28:47.509Z,9.98
2022-09-28T17:31:16.908Z,10.23
2022-09-28T17:33:45.064Z,12.50
2022-09-28T17:36:15.789Z,11.65
2022-09-28T17:38:46.102Z,12.93
2022-09-28T17:41:20.040Z,14.55
2022-09-28T17:43:48.654Z,13.23
2022-09-28T17:46:28.877Z,14.85
2022-09-28T17:48:59.376Z,15.45
2022-09-28T17:51:27.840Z,16.00
2022-09-28T17:53:56.898Z,15.52
2022-09-28T17:56:27.557Z,16.70
2022-09-28T17:59:00.944Z,18.13
2022-09-28T18:01:33.700Z,17.13
2022-09-28T18:04:03.054Z,15.02
2022-09-28T18:06:31.903Z,14.20
2022-09-28T18:09:01.801Z,15.80
2022-09-28T18:11:29.724Z,14.60
2022-09-28T18:13:57.481Z,15.00
2022-09-28T18:16:27.754Z,15.13
2022-09-28T18:18:55.755Z,14.52
2022-09-28T18:21:23.617Z,14.57
2022-09-28T18:23:51.593Z,15.55
2022-09-28T18:26:20.843Z,14.63
2022-09-28T18:28:48.786Z,15.00
2022-09-28T18:31:19.032Z,15.43
2022-09-28T18:33:48.288Z,15.55
2022-09-28T18:36:16.239Z,14.60
2022-09-28T18:38:44.022Z,15.38
2022-09-28T18:41:15.867Z,15.70
2022-09-28T18:43:50.308Z,15.85
2022-09-28T18:46:19.212Z,15.05
2022-09-28T18:48:47.623Z,15.32
2022-09-28T18:51:15.436Z,14.27
2022-09-28T18:53:43.457Z,13.30
2022-09-28T18:56:13.103Z,14.48
2022-09-28T18:58:42.522Z,14.02
2022-09-28T19:01:29.381Z,14.73
2022-09-28T19:03:59.642Z,15.10
2022-09-28T19:06:27.287Z,13.80
2022-09-28T19:08:56.533Z,14.30
2022-09-28T19:11:25.261Z,14.25
2022-09-28T19:13:54.596Z,14.82
2022-09-28T19:16:25.102Z,13.23
2022-09-28T19:18:53.738Z,14.65
2022-09-28T19:21:21.858Z,13.52
2022-09-28T19:23:50.701Z,14.10
2022-09-28T19:26:21.305Z,12.95
2022-09-28T19:28:51.279Z,13.15
2022-09-28T19:31:19.517Z,14.95
2022-09-28T19:33:48.483Z,12.88
2022-09-28T19:36:18.536Z,12.98
2022-09-28T19:38:47.002Z,13.05
2022-09-28T19:41:39.412Z,13.38
2022-09-28T19:44:12.973Z,12.77
2022-09-28T19:46:41.548Z,12.82
2022-09-28T19:49:12.978Z,12.40
2022-09-28T19:51:56.565Z,12.32
2022-09-28T19:54:36.355Z,12.27
2022-09-28T19:57:07.562Z,13.15
2022-09-28T19:59:36.584Z,12.48
2022-09-28T20:02:04.793Z,14.82
2022-09-28T20:04:33.770Z,13.20
2022-09-28T20:07:01.722Z,14.48
2022-09-28T20:09:29.304Z,14.55
2022-09-28T20:11:57.143Z,14.55
2022-09-28T20:14:25.973Z,14.50
2022-09-28T20:16:58.272Z,13.60
2022-09-28T20:19:26.254Z,12.23
2022-09-28T20:21:59.346Z,13.05
2022-09-28T20:24:28.785Z,13.77
2022-09-28T20:26:56.614Z,12.52
2022-09-28T20:29:24.868Z,12.40
2022-09-28T20:31:52.731Z,11.70
2022-09-28T20:34:20.525Z,12.05
2022-09-28T20:36:48.211Z,12.40
2022-09-28T20:39:17.178Z,12.10
2022-09-28T20:41:46.108Z,12.27
2022-09-28T20:44:13.990Z,12.68
2022-09-28T20:46:43.663Z,13.85
2022-09-28T20:49:11.409Z,12.82
2022-09-28T20:51:38.951Z,11.80
2022-09-28T20:54:06.775Z,11.73
2022-09-28T20:56:37.988Z,11.35
2022-09-28T20:59:07.549Z,10.73
2022-09-28T21:01:35.575Z,11.55
2022-09-28T21:04:04.843Z,11.60
2022-09-28T21:06:34.371Z,11.35
2022-09-28T21:09:02.093Z,11.70
2022-09-28T21:11:30.892Z,11.70
2022-09-28T21:14:01.632Z,10.57
2022-09-28T21:16:30.655Z,10.27
2022-09-28T21:18:58.592Z,10.32
2022-09-28T21:21:28.053Z,9.77
2022-09-28T21:23:58.304Z,9.25
2022-09-28T21:26:28.099Z,9.25
2022-09-28T21:28:56.608Z,10.23
2022-09-28T21:31:29.196Z,10.45
2022-09-28T21:33:57.954Z,9.18
2022-09-28T21:36:26.113Z,9.18
2022-09-28T21:38:55.152Z,9.75
2022-09-28T21:41:22.858Z,9.73
2022-09-28T21:43:50.512Z,10.57
2022-09-28T21:46:18.488Z,8.98
2022-09-28T21:48:47.548Z,9.48
2022-09-28T21:51:16.383Z,9.75
2022-09-28T21:53:45.149Z,8.48
2022-09-28T21:56:13.877Z,8.73
2022-09-28T21:58:41.837Z,8.95
2022-09-28T22:01:14.667Z,9.85
2022-09-28T22:03:43.916Z,8.60
2022-09-28T22:06:13.293Z,8.75
2022-09-28T22:08:41.335Z,8.75
2022-09-28T22:11:10.794Z,8.43
2022-09-28T22:13:41.869Z,8.43
2022-09-28T22:16:10.912Z,8.10
2022-09-28T22:18:39.168Z,8.10
2022-09-28T22:21:09.847Z,8.98
2022-09-28T22:23:43.048Z,8.43
2022-09-28T22:26:12.722Z,8.52
2022-09-28T22:28:51.298Z,7.85
2022-09-28T22:31:32.498Z,8.10
2022-09-28T22:34:01.216Z,7.47
2022-09-28T22:36:38.051Z,8.77
2022-09-28T22:39:07.447Z,8.07
2022-09-28T22:41:35.495Z,9.40
2022-09-28T22:44:03.125Z,8.55
2022-09-28T22:46:32.257Z,9.00
2022-09-28T22:49:00.694Z,8.77
2022-09-28T22:51:30.187Z,9.27
2022-09-28T22:53:58.498Z,9.13
2022-09-28T22:56:27.806Z,9.02
2022-09-28T22:58:55.652Z,9.13
2022-09-28T23:01:24.619Z,8.55
2022-09-28T23:03:53.774Z,9.07
2022-09-28T23:06:23.855Z,8.32
2022-09-28T23:08:56.032Z,10.05
2022-09-28T23:11:28.403Z,9.50
2022-09-28T23:13:58.232Z,9.05
2022-09-28T23:16:27.177Z,9.57
2022-09-28T23:18:55.971Z,8.80
2022-09-28T23:21:25.414Z,8.68
2022-09-28T23:23:55.441Z,9.82
2022-09-28T23:26:25.756Z,9.50
2022-09-28T23:28:55.306Z,9.23
2022-09-28T23:31:24.888Z,9.70
2022-09-28T23:33:53.373Z,9.02
2022-09-28T23:36:20.981Z,9.80
2022-09-28T23:38:48.569Z,9.55
2022-09-28T23:41:16.176Z,8.10
2022-09-28T23:43:43.723Z,9.88
2022-09-28T23:46:14.541Z,9.55
2022-09-28T23:48:44.881Z,9.82
2022-09-28T23:51:12.530Z,8.68
2022-09-28T23:53:40.153Z,9.57
2022-09-28T23:56:07.785Z,8.75
2022-09-28T23:58:35.380Z,9.80
